createdAt,value
2017-10-16T00:01:46.220Z,8.90
2017-10-16T00:04:13.691Z,8.80
2017-10-16T00:06:41.174Z,8.90
2017-10-16T00:09:09.720Z,8.90
2017-10-16T00:11:37.207Z,8.90
2017-10-16T00:14:05.508Z,9.00
2017-10-16T00:16:32.992Z,8.90
2017-10-16T00:19:00.506Z,8.90
2017-10-16T00:21:28.816Z,8.90
2017-10-16T00:23:56.299Z,8.90
2017-10-16T00:26:23.771Z,8.90
2017-10-16T00:28:51.267Z,8.90
2017-10-16T00:31:18.759Z,8.80
2017-10-16T00:33:46.238Z,8.80
2017-10-16T00:36:13.869Z,8.80
2017-10-16T00:38:41.359Z,8.80
2017-10-16T00:41:11.163Z,8.80
2017-10-16T00:43:40.345Z,8.80
2017-10-16T00:46:08.409Z,8.80
2017-10-16T00:48:35.936Z,8.80
2017-10-16T00:51:04.192Z,8.80
2017-10-16T00:53:31.762Z,8.80
2017-10-16T00:55:59.249Z,8.80
2017-10-16T00:58:26.761Z,8.80
2017-10-16T01:00:54.244Z,8.80
2017-10-16T01:03:22.492Z,8.80
2017-10-16T01:05:49.982Z,8.80
2017-10-16T01:08:18.229Z,8.80
2017-10-16T01:10:45.728Z,8.70
2017-10-16T01:13:14.090Z,8.70
2017-10-16T01:15:42.339Z,8.70
2017-10-16T01:18:10.916Z,8.70
2017-10-16T01:20:38.399Z,8.70
2017-10-16T01:23:05.902Z,8.60
2017-10-16T01:25:33.413Z,8.60
2017-10-16T01:28:00.899Z,8.60
2017-10-16T01:30:28.375Z,8.60
2017-10-16T01:32:55.855Z,8.60
2017-10-16T01:35:23.360Z,8.60
2017-10-16T01:37:51.648Z,8.50
2017-10-16T01:40:19.896Z,8.50
2017-10-16T01:42:48.191Z,8.50
2017-10-16T01:45:16.468Z,8.50
2017-10-16T01:47:44.720Z,8.50
2017-10-16T01:50:12.211Z,8.50
2017-10-16T01:52:41.393Z,8.50
2017-10-16T01:55:09.679Z,8.50
2017-10-16T01:57:37.955Z,8.60
2017-10-16T02:00:05.511Z,8.50
2017-10-16T02:02:33.757Z,8.60
2017-10-16T02:05:01.246Z,8.60
2017-10-16T02:07:29.556Z,8.60
2017-10-16T02:09:57.084Z,8.60
2017-10-16T02:12:25.340Z,8.60
2017-10-16T02:14:52.820Z,8.50
2017-10-16T02:17:21.064Z,8.50
2017-10-16T02:19:48.555Z,8.50
2017-10-16T02:22:16.811Z,8.50
2017-10-16T02:24:44.298Z,8.50
2017-10-16T02:27:12.548Z,8.40
2017-10-16T02:29:41.711Z,8.40
2017-10-16T02:32:09.184Z,8.40
2017-10-16T02:34:36.812Z,8.40
2017-10-16T02:37:04.336Z,8.30
2017-10-16T02:39:32.583Z,8.30
2017-10-16T02:42:00.063Z,8.20
2017-10-16T02:44:27.566Z,8.20
2017-10-16T02:46:55.043Z,8.20
2017-10-16T02:49:22.543Z,8.20
2017-10-16T02:51:50.783Z,8.20
2017-10-16T02:54:18.265Z,8.20
2017-10-16T02:56:45.846Z,8.20
2017-10-16T02:59:14.111Z,8.20
2017-10-16T03:01:42.967Z,8.20
2017-10-16T03:04:10.461Z,8.20
2017-10-16T03:06:38.738Z,8.10
2017-10-16T03:09:06.984Z,8.10
2017-10-16T03:11:34.474Z,8.10
2017-10-16T03:14:02.762Z,8.10
2017-10-16T03:16:31.012Z,8.10
2017-10-16T03:18:59.311Z,8.10
2017-10-16T03:21:27.556Z,8.10
2017-10-16T03:23:55.032Z,8.10
2017-10-16T03:26:22.597Z,8.20
2017-10-16T03:28:50.884Z,8.20
2017-10-16T03:31:19.127Z,8.30
2017-10-16T03:33:46.611Z,8.20
2017-10-16T03:36:14.852Z,8.30
2017-10-16T03:38:43.644Z,8.30
2017-10-16T03:41:11.159Z,8.30
2017-10-16T03:43:38.639Z,8.30
2017-10-16T03:46:06.119Z,8.30
2017-10-16T03:48:33.607Z,8.30
2017-10-16T03:51:01.851Z,8.30
2017-10-16T03:53:29.329Z,8.40
2017-10-16T03:55:56.818Z,8.40
2017-10-16T03:58:24.294Z,8.40
2017-10-16T04:00:51.821Z,8.40
2017-10-16T04:03:20.094Z,8.50
2017-10-16T04:05:48.345Z,8.50
2017-10-16T04:08:15.827Z,8.40
2017-10-16T04:10:45.298Z,8.50
2017-10-16T04:13:13.706Z,8.50
2017-10-16T04:15:41.962Z,8.40
2017-10-16T04:18:09.552Z,8.40
2017-10-16T04:20:37.796Z,8.30
2017-10-16T04:23:05.280Z,8.40
2017-10-16T04:25:33.539Z,8.40
2017-10-16T04:28:01.020Z,8.30
2017-10-16T04:30:29.259Z,8.40
2017-10-16T04:32:56.747Z,8.40
2017-10-16T04:35:25.000Z,8.40
2017-10-16T04:37:52.476Z,8.30
2017-10-16T04:40:20.039Z,8.30
2017-10-16T04:42:48.330Z,8.30
2017-10-16T04:45:16.570Z,8.30
2017-10-16T04:47:45.185Z,8.20
2017-10-16T04:50:14.347Z,8.20
2017-10-16T04:52:41.829Z,8.20
2017-10-16T04:55:09.395Z,8.20
2017-10-16T04:57:36.875Z,8.20
2017-10-16T05:00:04.420Z,8.20
2017-10-16T05:02:32.674Z,8.20
2017-10-16T05:05:00.152Z,8.20
2017-10-16T05:07:28.422Z,8.20
2017-10-16T05:09:56.950Z,8.10
2017-10-16T05:12:24.426Z,8.10
2017-10-16T05:14:51.908Z,8.10
2017-10-16T05:17:19.410Z,8.10
2017-10-16T05:19:46.944Z,8.10
2017-10-16T05:22:15.907Z,8.10
2017-10-16T05:24:43.396Z,8.00
2017-10-16T05:27:11.645Z,8.00
2017-10-16T05:29:39.130Z,8.00
2017-10-16T05:32:06.640Z,7.90
2017-10-16T05:34:34.174Z,7.90
2017-10-16T05:37:01.708Z,8.00
2017-10-16T05:39:29.959Z,7.90
2017-10-16T05:41:57.436Z,7.90
2017-10-16T05:44:25.715Z,7.90
2017-10-16T05:46:53.971Z,7.90
2017-10-16T05:49:21.451Z,7.90
2017-10-16T05:51:49.971Z,7.90
2017-10-16T05:54:17.464Z,7.90
2017-10-16T05:56:45.859Z,7.90
2017-10-16T05:59:13.343Z,7.90
2017-10-16T06:01:41.594Z,7.90
2017-10-16T06:04:09.069Z,7.90
2017-10-16T06:06:37.349Z,8.00
2017-10-16T06:09:05.613Z,8.00
2017-10-16T06:11:33.860Z,8.00
2017-10-16T06:14:01.341Z,8.00
2017-10-16T06:16:29.602Z,8.00
2017-10-16T06:18:57.087Z,8.00
2017-10-16T06:21:25.332Z,8.20
2017-10-16T06:23:52.821Z,8.20
2017-10-16T06:26:21.075Z,8.30
2017-10-16T06:28:48.552Z,8.20
2017-10-16T06:31:17.652Z,8.30
2017-10-16T06:33:46.857Z,8.30
2017-10-16T06:36:14.341Z,8.30
2017-10-16T06:38:41.872Z,8.40
2017-10-16T06:41:10.112Z,8.60
2017-10-16T06:43:37.592Z,8.60
2017-10-16T06:46:05.871Z,8.80
2017-10-16T06:48:33.346Z,8.80
2017-10-16T06:51:01.592Z,9.00
2017-10-16T06:53:29.079Z,9.00
2017-10-16T06:55:57.320Z,9.10
2017-10-16T06:58:24.906Z,9.10
2017-10-16T07:00:53.159Z,9.10
2017-10-16T07:03:20.634Z,9.10
2017-10-16T07:05:48.878Z,9.20
2017-10-16T07:08:16.467Z,9.20
2017-10-16T07:10:43.946Z,9.20
2017-10-16T07:13:11.434Z,9.30
2017-10-16T07:15:38.924Z,9.40
2017-10-16T07:18:06.504Z,9.50
2017-10-16T07:20:34.776Z,9.70
2017-10-16T07:23:02.344Z,9.70
2017-10-16T07:25:30.624Z,9.80
2017-10-16T07:27:58.868Z,9.80
2017-10-16T07:30:26.359Z,9.80
2017-10-16T07:32:54.607Z,10.20
2017-10-16T07:35:22.860Z,10.30
2017-10-16T07:37:50.354Z,10.20
2017-10-16T07:40:19.342Z,10.40
2017-10-16T07:42:46.932Z,10.40
2017-10-16T07:45:15.195Z,10.70
2017-10-16T07:47:43.449Z,10.90
2017-10-16T07:50:10.931Z,10.90
2017-10-16T07:52:39.187Z,11.20
2017-10-16T07:55:06.768Z,11.20
2017-10-16T07:57:35.047Z,11.60
2017-10-16T08:00:03.323Z,11.70
2017-10-16T08:02:31.603Z,11.80
2017-10-16T08:04:59.857Z,11.90
2017-10-16T08:07:27.441Z,11.90
2017-10-16T08:09:55.686Z,12.20
2017-10-16T08:12:23.940Z,12.40
2017-10-16T08:14:51.436Z,12.40
2017-10-16T08:17:20.310Z,12.30
2017-10-16T08:19:50.228Z,12.40
2017-10-16T08:22:17.721Z,12.40
2017-10-16T08:24:45.984Z,12.50
2017-10-16T08:27:14.240Z,12.40
2017-10-16T08:29:41.740Z,12.40
2017-10-16T08:32:09.220Z,12.40
2017-10-16T08:34:36.703Z,12.50
2017-10-16T08:37:04.195Z,12.60
2017-10-16T08:39:32.475Z,12.70
2017-10-16T08:42:00.717Z,12.80
2017-10-16T08:44:28.302Z,12.80
2017-10-16T08:46:55.784Z,12.80
2017-10-16T08:49:23.323Z,12.90
2017-10-16T08:51:51.602Z,13.20
2017-10-16T08:54:20.776Z,13.30
2017-10-16T08:56:48.359Z,13.30
2017-10-16T08:59:16.611Z,13.60
2017-10-16T09:01:44.091Z,13.60
2017-10-16T09:04:12.341Z,13.80
2017-10-16T09:06:39.831Z,13.80
2017-10-16T09:09:08.075Z,14.00
2017-10-16T09:11:35.563Z,14.00
2017-10-16T09:14:03.823Z,14.30
2017-10-16T09:16:31.398Z,14.20
2017-10-16T09:18:59.638Z,14.50
2017-10-16T09:21:27.236Z,14.50
2017-10-16T09:23:55.488Z,14.70
2017-10-16T09:26:22.966Z,14.70
2017-10-16T09:28:52.155Z,14.90
2017-10-16T09:31:19.637Z,14.90
2017-10-16T09:33:47.906Z,15.10
2017-10-16T09:36:16.184Z,15.30
2017-10-16T09:38:44.456Z,15.50
2017-10-16T09:41:12.710Z,15.60
2017-10-16T09:43:40.216Z,15.60
2017-10-16T09:46:07.813Z,15.60
2017-10-16T09:48:35.311Z,15.80
2017-10-16T09:51:03.564Z,16.20
2017-10-16T09:53:31.043Z,16.10
2017-10-16T09:55:59.326Z,16.60
2017-10-16T09:58:27.591Z,16.90
2017-10-16T10:00:55.845Z,17.10
2017-10-16T10:03:23.379Z,17.10
2017-10-16T10:05:50.870Z,17.40
2017-10-16T10:08:18.386Z,17.80
2017-10-16T10:10:45.869Z,18.00
2017-10-16T10:13:13.361Z,18.50
2017-10-16T10:15:41.607Z,20.00
2017-10-16T10:18:09.098Z,20.00
2017-10-16T10:20:37.361Z,22.40
2017-10-16T10:23:04.830Z,22.40
2017-10-16T10:25:33.080Z,23.90
2017-10-16T10:28:00.566Z,23.90
2017-10-16T10:30:28.844Z,25.20
2017-10-16T10:32:57.088Z,25.40
2017-10-16T10:35:24.572Z,25.40
2017-10-16T10:37:52.054Z,25.90
2017-10-16T10:40:19.536Z,26.50
2017-10-16T10:42:47.156Z,26.80
2017-10-16T10:45:15.412Z,27.50
2017-10-16T10:47:42.892Z,27.40
2017-10-16T10:50:11.151Z,27.80
2017-10-16T10:52:38.740Z,27.70
2017-10-16T10:55:06.999Z,28.90
2017-10-16T10:57:35.260Z,29.20
2017-10-16T11:00:04.250Z,29.50
2017-10-16T11:02:31.840Z,29.50
2017-10-16T11:05:00.091Z,30.80
2017-10-16T11:07:28.363Z,30.90
2017-10-16T11:09:55.835Z,30.80
2017-10-16T11:12:23.439Z,30.40
2017-10-16T11:14:51.032Z,31.10
2017-10-16T11:17:18.508Z,31.50
2017-10-16T11:19:45.999Z,32.00
2017-10-16T11:22:13.490Z,32.50
2017-10-16T11:24:40.972Z,32.40
2017-10-16T11:27:08.586Z,32.00
2017-10-16T11:29:36.064Z,32.00
2017-10-16T11:32:03.572Z,33.10
2017-10-16T11:34:31.846Z,33.60
2017-10-16T11:37:00.129Z,33.10
2017-10-16T11:39:28.376Z,34.20
2017-10-16T11:41:56.766Z,34.90
2017-10-16T11:44:24.251Z,34.90
2017-10-16T11:46:52.519Z,36.40
2017-10-16T11:49:20.796Z,36.90
2017-10-16T11:51:49.044Z,36.40
2017-10-16T11:54:16.819Z,36.40
2017-10-16T11:56:44.303Z,37.40
2017-10-16T11:59:12.547Z,37.20
2017-10-16T12:01:40.022Z,37.10
2017-10-16T12:04:08.275Z,37.20
2017-10-16T12:06:35.866Z,37.20
2017-10-16T12:09:04.144Z,38.80
2017-10-16T12:11:32.392Z,39.10
2017-10-16T12:13:59.883Z,39.00
2017-10-16T12:16:28.118Z,40.10
2017-10-16T12:18:55.611Z,40.00
2017-10-16T12:21:23.855Z,40.50
2017-10-16T12:23:51.355Z,40.50
2017-10-16T12:26:19.606Z,41.40
2017-10-16T12:28:47.091Z,41.30
2017-10-16T12:31:14.578Z,40.70
2017-10-16T12:33:42.093Z,41.20
2017-10-16T12:36:10.370Z,40.40
2017-10-16T12:38:38.636Z,40.40
2017-10-16T12:41:06.128Z,40.40
2017-10-16T12:43:33.621Z,40.20
2017-10-16T12:46:01.112Z,39.80
2017-10-16T12:48:28.599Z,39.30
2017-10-16T12:50:56.133Z,39.20
2017-10-16T12:53:24.384Z,39.00
2017-10-16T12:55:51.876Z,39.00
2017-10-16T12:58:20.130Z,39.70
2017-10-16T13:00:48.135Z,39.60
2017-10-16T13:03:15.620Z,40.80
2017-10-16T13:05:43.131Z,41.60
2017-10-16T13:08:10.631Z,39.70
2017-10-16T13:10:38.160Z,37.90
2017-10-16T13:13:06.676Z,37.60
2017-10-16T13:15:34.159Z,37.60
2017-10-16T13:18:01.647Z,38.10
2017-10-16T13:20:29.215Z,40.00
2017-10-16T13:22:57.459Z,40.10
2017-10-16T13:25:25.059Z,40.10
2017-10-16T13:27:52.543Z,40.20
2017-10-16T13:30:20.015Z,37.40
2017-10-16T13:32:47.522Z,36.00
2017-10-16T13:35:15.773Z,36.90
2017-10-16T13:37:43.358Z,36.90
2017-10-16T13:40:11.607Z,37.60
2017-10-16T13:42:39.205Z,37.60
2017-10-16T13:45:07.468Z,38.90
2017-10-16T13:47:35.732Z,39.90
2017-10-16T13:50:03.976Z,38.90
2017-10-16T13:52:31.492Z,38.90
2017-10-16T13:54:59.866Z,37.90
2017-10-16T13:57:28.112Z,39.10
2017-10-16T13:59:55.596Z,39.10
2017-10-16T14:02:23.882Z,38.50
2017-10-16T14:04:52.137Z,37.90
2017-10-16T14:07:20.535Z,37.90
2017-10-16T14:09:48.842Z,37.50
2017-10-16T14:12:16.367Z,37.50
2017-10-16T14:14:44.615Z,38.70
2017-10-16T14:17:12.202Z,38.60
2017-10-16T14:19:40.479Z,37.70
2017-10-16T14:22:08.733Z,37.30
2017-10-16T14:24:36.239Z,37.30
2017-10-16T14:27:03.777Z,36.80
2017-10-16T14:29:32.029Z,35.90
2017-10-16T14:31:59.516Z,35.90
2017-10-16T14:34:27.769Z,36.50
2017-10-16T14:36:55.342Z,36.50
2017-10-16T14:39:23.598Z,34.80
2017-10-16T14:41:52.583Z,34.10
2017-10-16T14:44:20.108Z,34.00
2017-10-16T14:46:47.610Z,34.10
2017-10-16T14:49:15.191Z,33.80
2017-10-16T14:51:43.469Z,31.90
2017-10-16T14:54:11.786Z,31.30
2017-10-16T14:56:39.279Z,31.30
2017-10-16T14:59:06.866Z,30.50
2017-10-16T15:01:35.138Z,28.60
2017-10-16T15:04:03.395Z,27.30
2017-10-16T15:06:31.616Z,27.30
2017-10-16T15:08:59.163Z,26.80
2017-10-16T15:11:27.426Z,25.50
2017-10-16T15:13:55.675Z,24.90
2017-10-16T15:16:23.167Z,24.80
2017-10-16T15:18:51.419Z,23.80
2017-10-16T15:21:19.677Z,23.40
2017-10-16T15:23:47.280Z,23.40
2017-10-16T15:26:15.562Z,23.00
2017-10-16T15:28:43.806Z,22.80
2017-10-16T15:31:11.299Z,22.80
2017-10-16T15:33:39.555Z,22.50
2017-10-16T15:36:07.040Z,22.40
2017-10-16T15:38:34.587Z,22.30
2017-10-16T15:41:03.337Z,21.80
2017-10-16T15:43:30.864Z,21.70
2017-10-16T15:45:58.361Z,21.60
2017-10-16T15:48:25.856Z,21.40
2017-10-16T15:50:53.461Z,21.10
2017-10-16T15:53:20.952Z,21.00
2017-10-16T15:55:48.529Z,20.90
2017-10-16T15:58:16.781Z,20.50
2017-10-16T16:00:45.930Z,20.30
2017-10-16T16:03:13.409Z,20.30
2017-10-16T16:05:40.919Z,20.00
2017-10-16T16:08:09.180Z,19.50
2017-10-16T16:10:37.931Z,19.20
2017-10-16T16:13:05.433Z,19.20
2017-10-16T16:15:32.922Z,19.00
2017-10-16T16:18:00.695Z,18.80
2017-10-16T16:20:28.188Z,18.50
2017-10-16T16:22:55.687Z,18.30
2017-10-16T16:25:23.935Z,18.00
2017-10-16T16:27:51.415Z,17.90
2017-10-16T16:30:19.708Z,17.60
2017-10-16T16:32:47.259Z,17.50
2017-10-16T16:35:15.526Z,17.10
2017-10-16T16:37:43.913Z,17.00
2017-10-16T16:40:12.163Z,16.80
2017-10-16T16:42:39.647Z,16.80
2017-10-16T16:45:07.919Z,16.50
2017-10-16T16:47:36.181Z,16.40
2017-10-16T16:50:04.443Z,16.20
2017-10-16T16:52:31.950Z,16.20
2017-10-16T16:54:59.445Z,16.10
2017-10-16T16:57:26.930Z,16.00
2017-10-16T16:59:54.528Z,15.90
2017-10-16T17:02:22.306Z,15.80
2017-10-16T17:04:50.062Z,15.70
2017-10-16T17:07:18.456Z,15.40
2017-10-16T17:09:45.950Z,15.40
2017-10-16T17:12:13.472Z,15.30
2017-10-16T17:14:40.998Z,15.20
2017-10-16T17:17:09.260Z,15.00
2017-10-16T17:19:37.536Z,14.90
2017-10-16T17:22:05.836Z,14.80
2017-10-16T17:24:33.333Z,14.80
2017-10-16T17:27:00.836Z,14.70
2017-10-16T17:29:28.339Z,14.60
2017-10-16T17:31:55.877Z,14.50
2017-10-16T17:34:23.388Z,14.40
2017-10-16T17:36:50.875Z,14.30
2017-10-16T17:39:19.224Z,14.10
2017-10-16T17:41:46.729Z,14.10
2017-10-16T17:44:14.220Z,14.00
2017-10-16T17:46:41.734Z,13.90
2017-10-16T17:49:09.305Z,13.80
2017-10-16T17:51:36.981Z,13.80
2017-10-16T17:54:04.509Z,13.70
2017-10-16T17:56:32.771Z,13.40
2017-10-16T17:59:00.418Z,13.40
2017-10-16T18:01:27.912Z,13.30
2017-10-16T18:03:57.503Z,13.30
2017-10-16T18:06:25.213Z,13.20
2017-10-16T18:08:52.699Z,13.10
2017-10-16T18:11:20.202Z,13.10
2017-10-16T18:13:48.458Z,12.90
2017-10-16T18:16:16.739Z,12.80
2017-10-16T18:18:44.665Z,12.80
2017-10-16T18:21:12.160Z,12.70
2017-10-16T18:23:39.650Z,12.60
2017-10-16T18:26:07.908Z,12.50
2017-10-16T18:28:36.180Z,12.40
2017-10-16T18:31:04.478Z,12.40
2017-10-16T18:33:32.030Z,12.30
2017-10-16T18:35:59.618Z,12.30
2017-10-16T18:38:27.172Z,12.20
2017-10-16T18:40:54.699Z,12.20
2017-10-16T18:43:23.417Z,12.10
2017-10-16T18:45:51.243Z,12.10
2017-10-16T18:48:19.499Z,12.00
2017-10-16T18:50:47.036Z,12.00
2017-10-16T18:53:14.571Z,12.00
2017-10-16T18:55:42.887Z,11.90
2017-10-16T18:58:10.826Z,11.90
2017-10-16T19:00:38.739Z,11.90
2017-10-16T19:03:06.659Z,11.80
2017-10-16T19:05:35.271Z,11.60
2017-10-16T19:08:03.833Z,11.60
2017-10-16T19:10:31.705Z,11.60
2017-10-16T19:12:59.592Z,11.60
2017-10-16T19:15:28.445Z,11.40
2017-10-16T19:17:56.369Z,11.30
2017-10-16T19:20:24.291Z,11.30
2017-10-16T19:22:52.261Z,11.20
2017-10-16T19:25:20.231Z,11.10
2017-10-16T19:27:48.301Z,11.10
2017-10-16T19:30:16.182Z,11.00
2017-10-16T19:32:44.036Z,11.00
2017-10-16T19:35:13.185Z,10.90
2017-10-16T19:37:41.454Z,10.80
2017-10-16T19:40:08.964Z,10.80
2017-10-16T19:42:36.790Z,10.70
2017-10-16T19:45:04.350Z,10.60
2017-10-16T19:47:32.622Z,10.60
2017-10-16T19:50:00.962Z,10.50
2017-10-16T19:52:29.974Z,10.50
2017-10-16T19:54:59.237Z,10.40
2017-10-16T19:57:27.149Z,10.40
2017-10-16T19:59:55.164Z,10.40
2017-10-16T20:02:22.723Z,10.40
2017-10-16T20:04:50.301Z,10.30
2017-10-16T20:07:18.794Z,10.30
2017-10-16T20:09:46.346Z,10.20
2017-10-16T20:12:14.633Z,10.20
2017-10-16T20:14:42.925Z,10.10
2017-10-16T20:17:11.265Z,10.20
2017-10-16T20:19:38.901Z,10.20
2017-10-16T20:22:07.795Z,10.10
2017-10-16T20:24:36.099Z,10.00
2017-10-16T20:27:03.714Z,10.00
2017-10-16T20:29:31.297Z,10.00
2017-10-16T20:32:00.503Z,9.90
2017-10-16T20:34:28.039Z,9.90
2017-10-16T20:36:58.334Z,9.80
2017-10-16T20:39:25.833Z,9.70
2017-10-16T20:41:54.105Z,9.70
2017-10-16T20:44:21.670Z,9.70
2017-10-16T20:46:49.923Z,9.60
2017-10-16T20:49:18.128Z,9.60
2017-10-16T20:51:46.396Z,9.60
2017-10-16T20:54:14.673Z,9.50
2017-10-16T20:56:42.791Z,9.50
2017-10-16T20:59:10.423Z,9.40
2017-10-16T21:01:37.970Z,9.30
2017-10-16T21:04:06.372Z,9.20
2017-10-16T21:06:33.892Z,9.20
2017-10-16T21:09:02.159Z,9.20
2017-10-16T21:11:31.585Z,9.20
2017-10-16T21:14:00.762Z,9.20
2017-10-16T21:16:28.236Z,9.10
2017-10-16T21:18:56.521Z,9.00
2017-10-16T21:21:24.772Z,9.00
2017-10-16T21:23:53.020Z,8.90
2017-10-16T21:26:21.336Z,8.90
2017-10-16T21:28:48.841Z,8.90
2017-10-16T21:31:16.320Z,8.90
2017-10-16T21:33:43.820Z,8.80
2017-10-16T21:36:12.064Z,8.80
2017-10-16T21:38:40.443Z,8.80
2017-10-16T21:41:08.070Z,8.70
2017-10-16T21:43:35.604Z,8.70
2017-10-16T21:46:03.876Z,8.70
2017-10-16T21:48:32.134Z,8.70
2017-10-16T21:51:00.539Z,8.60
2017-10-16T21:53:28.838Z,8.60
2017-10-16T21:55:56.339Z,8.60
2017-10-16T21:58:23.815Z,8.60
2017-10-16T22:00:52.114Z,8.60
2017-10-16T22:03:19.623Z,8.50
2017-10-16T22:05:47.096Z,8.50
2017-10-16T22:08:14.671Z,8.40
2017-10-16T22:10:42.924Z,8.40
2017-10-16T22:13:10.426Z,8.30
2017-10-16T22:15:37.935Z,8.40
2017-10-16T22:18:05.428Z,8.40
2017-10-16T22:20:33.681Z,8.30
2017-10-16T22:23:01.161Z,8.30
2017-10-16T22:25:29.414Z,8.30
2017-10-16T22:27:57.660Z,8.30
2017-10-16T22:30:25.133Z,8.30
2017-10-16T22:32:52.734Z,8.20
2017-10-16T22:35:20.974Z,8.10
2017-10-16T22:37:48.454Z,8.10
2017-10-16T22:40:16.744Z,8.10
2017-10-16T22:42:44.991Z,8.10
2017-10-16T22:45:12.472Z,8.10
2017-10-16T22:47:40.751Z,8.00
2017-10-16T22:50:08.996Z,8.00
2017-10-16T22:52:36.508Z,7.90
2017-10-16T22:55:03.998Z,7.90
2017-10-16T22:57:31.479Z,7.90
2017-10-16T22:59:58.951Z,7.90
2017-10-16T23:02:26.442Z,7.80
2017-10-16T23:04:53.923Z,7.80
2017-10-16T23:07:21.399Z,7.80
2017-10-16T23:09:48.887Z,7.70
2017-10-16T23:12:16.365Z,7.70
2017-10-16T23:14:44.673Z,7.70
2017-10-16T23:17:12.178Z,7.70
2017-10-16T23:19:39.652Z,7.70
2017-10-16T23:22:07.901Z,7.70
2017-10-16T23:24:35.394Z,7.70
2017-10-16T23:27:03.662Z,7.60
2017-10-16T23:29:32.520Z,7.50
2017-10-16T23:32:00.012Z,7.50
2017-10-16T23:34:28.284Z,7.50
2017-10-16T23:36:56.532Z,7.40
2017-10-16T23:39:24.025Z,7.40
2017-10-16T23:41:52.268Z,7.30
2017-10-16T23:44:19.826Z,7.30
2017-10-16T23:46:47.334Z,7.30
2017-10-16T23:49:14.869Z,7.30
2017-10-16T23:51:42.381Z,7.20
2017-10-16T23:54:09.904Z,7.20
2017-10-16T23:56:37.443Z,7.20
2017-10-16T23:59:05.715Z,7.10
